createdAt,value
2023-03-27T00:01:25.951Z,12.58
2023-03-27T00:03:53.436Z,12.23
2023-03-27T00:06:20.789Z,12.05
2023-03-27T00:08:51.382Z,12.01
2023-03-27T00:11:21.735Z,12.30
2023-03-27T00:13:51.305Z,12.35
2023-03-27T00:16:20.025Z,12.29
2023-03-27T00:18:46.785Z,12.36
2023-03-27T00:21:13.463Z,12.27
2023-03-27T00:23:40.511Z,12.30
2023-03-27T00:26:07.215Z,12.15
2023-03-27T00:28:34.245Z,11.83
2023-03-27T00:31:01.038Z,11.71
2023-03-27T00:33:27.674Z,11.60
2023-03-27T00:35:54.446Z,11.58
2023-03-27T00:38:21.486Z,11.55
2023-03-27T00:40:49.234Z,11.47
2023-03-27T00:43:21.018Z,11.55
2023-03-27T00:45:48.123Z,11.75
2023-03-27T00:48:15.130Z,11.88
2023-03-27T00:50:43.436Z,11.96
2023-03-27T00:53:13.135Z,11.91
2023-03-27T00:55:42.377Z,11.87
2023-03-27T00:58:21.927Z,11.82
2023-03-27T01:00:51.596Z,11.75
2023-03-27T01:03:19.108Z,11.62
2023-03-27T01:05:46.267Z,11.61
2023-03-27T01:08:14.344Z,11.58
2023-03-27T01:10:44.286Z,11.57
2023-03-27T01:13:20.880Z,11.73
2023-03-27T01:15:58.579Z,11.88
2023-03-27T01:18:36.363Z,11.88
2023-03-27T01:21:36.098Z,11.89
2023-03-27T01:24:08.465Z,11.76
2023-03-27T01:27:01.941Z,11.81
2023-03-27T01:29:56.540Z,11.78
2023-03-27T01:32:44.866Z,11.63
2023-03-27T01:35:33.476Z,11.49
2023-03-27T01:38:20.647Z,11.45
2023-03-27T01:41:12.031Z,11.47
2023-03-27T01:43:56.660Z,11.49
2023-03-27T01:46:26.960Z,11.42
2023-03-27T01:49:01.390Z,11.47
2023-03-27T01:51:36.859Z,11.49
2023-03-27T01:54:09.694Z,11.54
2023-03-27T01:56:51.722Z,11.55
2023-03-27T01:59:21.658Z,11.51
2023-03-27T02:01:54.236Z,11.61
2023-03-27T02:04:26.550Z,11.64
2023-03-27T02:07:02.081Z,11.65
2023-03-27T02:09:35.533Z,11.68
2023-03-27T02:12:19.460Z,11.78
2023-03-27T02:14:51.508Z,11.71
2023-03-27T02:17:20.459Z,11.65
2023-03-27T02:19:51.578Z,11.61
2023-03-27T02:22:18.589Z,11.56
2023-03-27T02:24:49.011Z,11.45
2023-03-27T02:27:42.591Z,11.41
2023-03-27T02:30:16.309Z,11.42
2023-03-27T02:32:49.147Z,11.19
2023-03-27T02:35:23.427Z,11.20
2023-03-27T02:38:25.435Z,11.00
2023-03-27T02:41:09.404Z,11.20
2023-03-27T02:44:06.065Z,11.08
2023-03-27T02:47:07.525Z,11.04
2023-03-27T02:49:38.735Z,10.65
2023-03-27T02:52:12.458Z,10.88
2023-03-27T02:54:43.541Z,10.74
2023-03-27T02:57:11.678Z,11.18
2023-03-27T03:00:00.648Z,10.60
2023-03-27T03:02:33.900Z,10.62
2023-03-27T03:05:12.818Z,10.77
2023-03-27T03:07:40.177Z,10.70
2023-03-27T03:10:09.679Z,10.75
2023-03-27T03:12:36.471Z,10.77
2023-03-27T03:15:03.038Z,10.85
2023-03-27T03:17:30.805Z,10.73
2023-03-27T03:19:57.383Z,10.84
2023-03-27T03:22:25.514Z,10.57
2023-03-27T03:24:52.890Z,10.57
2023-03-27T03:27:24.098Z,10.71
2023-03-27T03:29:59.294Z,10.46
2023-03-27T03:32:27.600Z,10.31
2023-03-27T03:34:54.318Z,10.43
2023-03-27T03:37:20.964Z,10.51
2023-03-27T03:39:47.467Z,10.50
2023-03-27T03:42:22.629Z,10.01
2023-03-27T03:44:51.598Z,9.94
2023-03-27T03:47:20.367Z,9.96
2023-03-27T03:49:47.029Z,9.91
2023-03-27T03:52:13.990Z,9.96
2023-03-27T03:54:40.465Z,9.89
2023-03-27T03:57:08.231Z,9.81
2023-03-27T03:59:34.959Z,9.65
2023-03-27T04:02:30.035Z,9.66
2023-03-27T04:05:10.560Z,9.58
2023-03-27T04:07:40.065Z,9.71
2023-03-27T04:10:18.969Z,9.69
2023-03-27T04:12:49.412Z,9.63
2023-03-27T04:15:23.784Z,9.63
2023-03-27T04:18:09.097Z,9.64
2023-03-27T04:20:37.502Z,9.56
2023-03-27T04:23:08.166Z,9.46
2023-03-27T04:25:38.154Z,9.84
2023-03-27T04:28:05.330Z,9.43
2023-03-27T04:30:38.820Z,9.47
2023-03-27T04:33:46.522Z,9.41
2023-03-27T04:36:45.171Z,9.36
2023-03-27T04:39:16.416Z,9.33
2023-03-27T04:41:49.207Z,9.23
2023-03-27T04:44:19.156Z,9.13
2023-03-27T04:46:50.095Z,9.06
2023-03-27T04:49:20.208Z,9.13
2023-03-27T04:52:09.799Z,9.07
2023-03-27T04:54:36.500Z,9.08
2023-03-27T04:57:03.721Z,9.07
2023-03-27T04:59:31.913Z,9.00
2023-03-27T05:02:31.282Z,8.95
2023-03-27T05:05:03.282Z,8.92
2023-03-27T05:07:32.922Z,8.80
2023-03-27T05:10:02.078Z,8.83
2023-03-27T05:12:29.334Z,8.74
2023-03-27T05:15:00.587Z,8.71
2023-03-27T05:17:40.775Z,8.77
2023-03-27T05:20:11.918Z,8.88
2023-03-27T05:22:38.946Z,8.87
2023-03-27T05:25:17.080Z,8.88
2023-03-27T05:27:47.838Z,8.95
2023-03-27T05:30:17.676Z,8.88
2023-03-27T05:32:52.017Z,8.82
2023-03-27T05:35:26.207Z,8.83
2023-03-27T05:37:55.047Z,8.80
2023-03-27T05:40:36.062Z,8.78
2023-03-27T05:43:03.578Z,8.72
2023-03-27T05:45:32.471Z,8.69
2023-03-27T05:48:01.692Z,8.84
2023-03-27T05:50:33.202Z,9.02
2023-03-27T05:53:01.587Z,9.26
2023-03-27T05:55:34.843Z,9.73
2023-03-27T05:58:01.833Z,9.74
2023-03-27T06:00:31.959Z,10.20
2023-03-27T06:03:01.276Z,11.21
2023-03-27T06:05:48.915Z,12.07
2023-03-27T06:08:15.685Z,11.19
2023-03-27T06:10:43.758Z,11.86
2023-03-27T06:13:20.018Z,12.44
2023-03-27T06:16:00.386Z,12.14
2023-03-27T06:18:58.955Z,12.04
2023-03-27T06:21:26.068Z,11.54
2023-03-27T06:23:58.147Z,12.53
2023-03-27T06:26:28.320Z,15.79
2023-03-27T06:28:56.281Z,18.00
2023-03-27T06:31:23.293Z,20.01
2023-03-27T06:34:01.284Z,21.71
2023-03-27T06:37:00.081Z,22.51
2023-03-27T06:39:28.492Z,23.52
2023-03-27T06:41:56.197Z,22.65
2023-03-27T06:44:44.355Z,19.24
2023-03-27T06:47:36.393Z,16.78
2023-03-27T06:50:35.285Z,14.50
2023-03-27T06:53:03.076Z,14.02
2023-03-27T06:55:43.838Z,13.38
2023-03-27T06:58:14.831Z,12.71
2023-03-27T07:00:41.511Z,12.42
2023-03-27T07:03:18.394Z,12.44
2023-03-27T07:05:58.329Z,12.34
2023-03-27T07:08:27.970Z,12.26
2023-03-27T07:11:10.961Z,12.35
2023-03-27T07:13:43.995Z,12.57
2023-03-27T07:16:19.950Z,12.77
2023-03-27T07:18:46.598Z,14.54
2023-03-27T07:21:15.241Z,15.48
2023-03-27T07:23:41.825Z,15.35
2023-03-27T07:26:10.608Z,15.33
2023-03-27T07:29:00.965Z,16.21
2023-03-27T07:31:41.869Z,15.04
2023-03-27T07:34:15.869Z,14.77
2023-03-27T07:37:17.950Z,14.81
2023-03-27T07:40:07.120Z,13.75
2023-03-27T07:42:34.701Z,14.01
2023-03-27T07:45:04.858Z,17.88
2023-03-27T07:47:32.171Z,19.49
2023-03-27T07:49:59.190Z,20.35
2023-03-27T07:52:25.790Z,19.39
2023-03-27T07:54:56.997Z,17.53
2023-03-27T07:57:29.588Z,16.27
2023-03-27T08:00:02.894Z,15.18
2023-03-27T08:02:43.142Z,14.22
2023-03-27T08:05:11.252Z,13.83
2023-03-27T08:07:40.709Z,13.78
2023-03-27T08:10:08.102Z,13.74
2023-03-27T08:12:45.882Z,14.73
2023-03-27T08:15:12.498Z,17.62
2023-03-27T08:17:39.169Z,19.50
2023-03-27T08:20:09.473Z,20.71
2023-03-27T08:22:45.561Z,19.84
2023-03-27T08:25:38.064Z,19.94
2023-03-27T08:28:08.142Z,18.42
2023-03-27T08:30:35.449Z,17.19
2023-03-27T08:33:02.706Z,17.28
2023-03-27T08:35:29.697Z,19.59
2023-03-27T08:37:56.338Z,21.13
2023-03-27T08:40:37.790Z,19.19
2023-03-27T08:43:33.647Z,17.49
2023-03-27T08:46:06.423Z,16.24
2023-03-27T08:48:42.279Z,14.87
2023-03-27T08:51:12.260Z,13.92
2023-03-27T08:53:46.101Z,14.01
2023-03-27T08:56:17.387Z,13.65
2023-03-27T08:58:45.999Z,13.49
2023-03-27T09:01:36.634Z,13.76
2023-03-27T09:04:25.018Z,14.06
2023-03-27T09:07:01.959Z,13.77
2023-03-27T09:10:09.163Z,13.80
2023-03-27T09:12:58.891Z,14.32
2023-03-27T09:15:42.481Z,14.50
2023-03-27T09:18:18.434Z,14.39
2023-03-27T09:20:52.683Z,14.20
2023-03-27T09:23:27.988Z,14.05
2023-03-27T09:26:21.073Z,14.92
2023-03-27T09:29:22.213Z,15.70
2023-03-27T09:31:57.691Z,15.72
2023-03-27T09:34:28.339Z,15.68
2023-03-27T09:36:55.967Z,15.58
2023-03-27T09:39:27.549Z,15.69
2023-03-27T09:42:16.721Z,15.80
2023-03-27T09:44:50.434Z,15.70
2023-03-27T09:47:34.638Z,16.23
2023-03-27T09:50:34.193Z,16.79
2023-03-27T09:53:14.338Z,17.35
2023-03-27T09:56:02.876Z,17.47
2023-03-27T09:58:43.892Z,16.97
2023-03-27T10:01:16.633Z,16.63
2023-03-27T10:03:51.379Z,15.82
2023-03-27T10:06:38.637Z,15.61
2023-03-27T10:09:34.223Z,15.56
2023-03-27T10:12:06.087Z,15.96
2023-03-27T10:14:36.658Z,16.43
2023-03-27T10:17:05.040Z,16.88
2023-03-27T10:19:38.654Z,16.10
2023-03-27T10:22:27.939Z,16.48
2023-03-27T10:24:58.605Z,16.16
2023-03-27T10:27:44.492Z,16.59
2023-03-27T10:30:36.526Z,16.64
2023-03-27T10:33:36.696Z,17.00
2023-03-27T10:36:21.380Z,16.29
2023-03-27T10:38:58.360Z,15.88
2023-03-27T10:41:41.602Z,15.63
2023-03-27T10:44:17.829Z,15.64
2023-03-27T10:46:50.347Z,16.08
2023-03-27T10:49:42.833Z,16.94
2023-03-27T10:52:22.926Z,17.12
2023-03-27T10:55:20.203Z,16.81
2023-03-27T10:57:53.636Z,16.45
2023-03-27T11:00:40.956Z,16.41
2023-03-27T11:03:30.187Z,16.29
2023-03-27T11:06:05.109Z,16.13
2023-03-27T11:08:51.233Z,16.60
2023-03-27T11:11:27.074Z,16.79
2023-03-27T11:13:56.784Z,16.94
2023-03-27T11:16:31.391Z,17.08
2023-03-27T11:19:47.747Z,17.52
2023-03-27T11:22:57.029Z,17.61
2023-03-27T11:25:46.412Z,17.12
2023-03-27T11:28:26.886Z,16.42
2023-03-27T11:31:12.150Z,16.09
2023-03-27T11:33:44.925Z,16.14
2023-03-27T11:36:20.125Z,15.14
2023-03-27T11:39:15.318Z,14.96
2023-03-27T11:41:54.747Z,15.34
2023-03-27T11:44:22.187Z,15.61
2023-03-27T11:47:28.002Z,15.44
2023-03-27T11:50:09.074Z,15.69
2023-03-27T11:52:56.788Z,15.47
2023-03-27T11:56:17.365Z,15.57
2023-03-27T11:59:04.880Z,15.48
2023-03-27T12:01:42.717Z,15.68
2023-03-27T12:04:34.309Z,16.33
2023-03-27T12:07:35.844Z,15.95
2023-03-27T12:10:29.116Z,16.70
2023-03-27T12:13:54.943Z,16.62
2023-03-27T12:16:38.948Z,17.27
2023-03-27T12:19:38.547Z,17.56
2023-03-27T12:22:54.084Z,18.22
2023-03-27T12:25:59.084Z,18.35
2023-03-27T12:29:00.861Z,18.85
2023-03-27T12:32:10.574Z,18.99
2023-03-27T12:34:56.575Z,18.98
2023-03-27T12:37:42.255Z,19.33
2023-03-27T12:40:29.282Z,18.92
2023-03-27T12:43:29.858Z,19.41
2023-03-27T12:46:25.368Z,18.78
2023-03-27T12:49:13.265Z,18.58
2023-03-27T12:51:54.772Z,17.84
2023-03-27T12:55:05.929Z,18.29
2023-03-27T12:57:52.679Z,18.00
2023-03-27T13:00:37.224Z,17.99
2023-03-27T13:03:22.796Z,17.48
2023-03-27T13:06:18.717Z,16.72
2023-03-27T13:08:54.588Z,16.20
2023-03-27T13:11:41.568Z,15.96
2023-03-27T13:14:41.524Z,16.47
2023-03-27T13:17:41.777Z,17.02
2023-03-27T13:20:24.124Z,17.69
2023-03-27T13:23:15.579Z,18.36
2023-03-27T13:25:59.661Z,18.64
2023-03-27T13:28:51.389Z,18.42
2023-03-27T13:31:43.923Z,18.28
2023-03-27T13:34:32.672Z,19.11
2023-03-27T13:37:11.414Z,19.43
2023-03-27T13:39:46.328Z,19.42
2023-03-27T13:42:21.267Z,19.48
2023-03-27T13:45:05.475Z,19.29
2023-03-27T13:48:21.276Z,18.76
2023-03-27T13:51:35.463Z,18.22
2023-03-27T13:54:12.820Z,18.01
2023-03-27T13:56:47.735Z,17.34
2023-03-27T13:59:34.414Z,16.26
2023-03-27T14:02:30.716Z,15.62
2023-03-27T14:05:12.616Z,14.96
2023-03-27T14:08:13.402Z,14.82
2023-03-27T14:10:58.341Z,14.75
2023-03-27T14:13:39.207Z,15.26
2023-03-27T14:16:50.450Z,15.66
2023-03-27T14:19:29.020Z,15.79
2023-03-27T14:22:00.195Z,15.70
2023-03-27T14:24:37.123Z,15.82
2023-03-27T14:27:21.270Z,16.06
2023-03-27T14:29:49.593Z,16.22
2023-03-27T14:32:20.849Z,16.70
2023-03-27T14:34:54.673Z,17.26
2023-03-27T14:37:42.004Z,17.79
2023-03-27T14:40:43.552Z,16.98
2023-03-27T14:43:14.339Z,16.59
2023-03-27T14:45:41.228Z,16.10
2023-03-27T14:48:23.858Z,15.81
2023-03-27T14:50:53.444Z,15.72
2023-03-27T14:53:26.222Z,15.59
2023-03-27T14:56:11.643Z,15.39
2023-03-27T14:58:59.459Z,15.16
2023-03-27T15:01:35.244Z,14.94
2023-03-27T15:04:02.566Z,14.56
2023-03-27T15:06:36.268Z,14.59
2023-03-27T15:09:05.701Z,14.48
2023-03-27T15:11:55.887Z,14.45
2023-03-27T15:14:28.542Z,14.38
2023-03-27T15:17:08.569Z,14.40
2023-03-27T15:19:45.597Z,14.26
2023-03-27T15:22:40.485Z,14.32
2023-03-27T15:25:11.622Z,14.08
2023-03-27T15:27:38.991Z,14.55
2023-03-27T15:30:28.621Z,14.16
2023-03-27T15:32:56.868Z,14.01
2023-03-27T15:35:40.248Z,14.09
2023-03-27T15:38:08.133Z,13.92
2023-03-27T15:40:37.452Z,13.91
2023-03-27T15:43:13.621Z,13.63
2023-03-27T15:45:57.338Z,13.42
2023-03-27T15:48:32.998Z,13.55
2023-03-27T15:51:03.417Z,13.51
2023-03-27T15:53:37.059Z,13.69
2023-03-27T15:56:06.831Z,13.68
2023-03-27T15:58:42.973Z,13.27
2023-03-27T16:01:19.181Z,13.39
2023-03-27T16:03:48.352Z,13.26
2023-03-27T16:06:23.877Z,13.52
2023-03-27T16:08:51.577Z,13.41
2023-03-27T16:11:43.231Z,13.57
2023-03-27T16:14:48.267Z,13.55
2023-03-27T16:17:21.296Z,13.09
2023-03-27T16:19:53.853Z,12.94
2023-03-27T16:22:28.642Z,12.68
2023-03-27T16:24:56.837Z,12.68
2023-03-27T16:27:26.466Z,12.45
2023-03-27T16:29:53.524Z,12.44
2023-03-27T16:32:21.808Z,12.01
2023-03-27T16:34:48.392Z,12.16
2023-03-27T16:37:15.705Z,12.08
2023-03-27T16:39:42.925Z,12.10
2023-03-27T16:42:27.610Z,12.23
2023-03-27T16:44:54.322Z,12.07
2023-03-27T16:47:23.164Z,11.97
2023-03-27T16:50:03.629Z,11.87
2023-03-27T16:52:36.430Z,11.59
2023-03-27T16:55:04.603Z,11.64
2023-03-27T16:57:33.135Z,11.64
2023-03-27T17:00:00.359Z,11.56
2023-03-27T17:02:27.588Z,11.52
2023-03-27T17:04:54.238Z,11.52
2023-03-27T17:07:21.124Z,11.51
2023-03-27T17:09:47.657Z,11.56
2023-03-27T17:12:14.256Z,11.78
2023-03-27T17:14:40.779Z,11.90
2023-03-27T17:17:07.328Z,11.50
2023-03-27T17:19:33.978Z,11.42
2023-03-27T17:22:00.608Z,11.20
2023-03-27T17:24:27.068Z,11.27
2023-03-27T17:26:53.714Z,11.28
2023-03-27T17:29:20.323Z,11.31
2023-03-27T17:31:47.170Z,11.24
2023-03-27T17:34:13.838Z,11.23
2023-03-27T17:36:47.244Z,11.24
2023-03-27T17:39:19.042Z,11.21
2023-03-27T17:41:45.558Z,11.17
2023-03-27T17:44:13.584Z,11.17
2023-03-27T17:46:40.131Z,11.15
2023-03-27T17:49:06.704Z,11.10
2023-03-27T17:51:34.316Z,11.06
2023-03-27T17:54:01.345Z,11.08
2023-03-27T17:56:27.821Z,11.06
2023-03-27T17:58:54.324Z,11.11
2023-03-27T18:01:21.714Z,11.07
2023-03-27T18:03:48.761Z,11.06
2023-03-27T18:06:19.219Z,11.03
2023-03-27T18:08:46.505Z,11.03
2023-03-27T18:11:14.646Z,11.06
2023-03-27T18:13:41.594Z,11.12
2023-03-27T18:16:10.556Z,11.14
2023-03-27T18:18:39.054Z,11.18
2023-03-27T18:21:07.460Z,11.25
2023-03-27T18:23:35.090Z,11.19
2023-03-27T18:26:08.900Z,11.16
2023-03-27T18:28:35.784Z,11.02
2023-03-27T18:31:04.893Z,10.96
2023-03-27T18:33:31.892Z,10.98
2023-03-27T18:35:59.505Z,10.54
2023-03-27T18:38:27.482Z,10.70
2023-03-27T18:40:59.713Z,10.75
2023-03-27T18:43:26.536Z,10.53
2023-03-27T18:45:57.580Z,10.80
2023-03-27T18:48:24.296Z,11.35
2023-03-27T18:50:55.457Z,11.11
2023-03-27T18:53:22.301Z,10.99
2023-03-27T18:55:49.780Z,10.70
2023-03-27T18:58:16.518Z,10.65
2023-03-27T19:00:43.090Z,10.71
2023-03-27T19:03:15.518Z,10.79
2023-03-27T19:05:42.089Z,10.75
2023-03-27T19:08:08.629Z,10.62
2023-03-27T19:10:36.456Z,10.52
2023-03-27T19:13:22.138Z,10.46
2023-03-27T19:16:13.953Z,10.37
2023-03-27T19:19:00.557Z,10.28
2023-03-27T19:21:45.917Z,10.20
2023-03-27T19:24:21.329Z,10.23
2023-03-27T19:26:48.205Z,10.16
2023-03-27T19:29:14.729Z,9.99
2023-03-27T19:31:41.788Z,10.10
2023-03-27T19:34:08.431Z,10.01
2023-03-27T19:36:34.970Z,9.93
2023-03-27T19:39:01.521Z,9.93
2023-03-27T19:41:28.088Z,9.86
2023-03-27T19:43:54.731Z,9.89
2023-03-27T19:46:23.261Z,9.96
2023-03-27T19:48:52.143Z,9.89
2023-03-27T19:51:29.882Z,9.81
2023-03-27T19:53:57.307Z,9.81
2023-03-27T19:56:26.140Z,9.85
2023-03-27T19:58:52.953Z,9.84
2023-03-27T20:01:22.119Z,9.85
2023-03-27T20:03:48.869Z,9.80
2023-03-27T20:06:18.963Z,9.75
2023-03-27T20:08:45.649Z,9.66
2023-03-27T20:11:14.735Z,9.58
2023-03-27T20:13:53.087Z,9.48
2023-03-27T20:16:23.454Z,9.64
2023-03-27T20:18:55.406Z,9.57
2023-03-27T20:21:25.629Z,9.63
2023-03-27T20:23:55.665Z,9.59
2023-03-27T20:26:39.288Z,9.59
2023-03-27T20:29:21.622Z,9.63
2023-03-27T20:31:48.554Z,9.36
2023-03-27T20:34:19.158Z,9.42
2023-03-27T20:36:45.920Z,9.37
2023-03-27T20:39:33.647Z,9.38
2023-03-27T20:42:00.265Z,9.49
2023-03-27T20:44:40.159Z,9.20
2023-03-27T20:47:13.179Z,9.27
2023-03-27T20:49:43.842Z,9.49
2023-03-27T20:52:13.244Z,9.27
2023-03-27T20:54:39.776Z,9.45
2023-03-27T20:57:09.154Z,9.48
2023-03-27T20:59:35.863Z,9.55
2023-03-27T21:02:02.738Z,9.41
2023-03-27T21:04:31.479Z,9.40
2023-03-27T21:06:58.220Z,9.49
2023-03-27T21:09:26.100Z,9.30
2023-03-27T21:11:55.152Z,9.04
2023-03-27T21:14:22.170Z,9.09
2023-03-27T21:16:48.775Z,9.18
2023-03-27T21:19:15.918Z,8.99
2023-03-27T21:21:42.980Z,9.14
2023-03-27T21:24:09.599Z,9.34
2023-03-27T21:26:36.162Z,9.19
2023-03-27T21:29:03.371Z,9.30
2023-03-27T21:31:30.316Z,9.09
2023-03-27T21:33:56.877Z,9.29
2023-03-27T21:36:23.627Z,9.13
2023-03-27T21:38:50.411Z,8.92
2023-03-27T21:41:17.194Z,8.80
2023-03-27T21:43:43.727Z,8.93
2023-03-27T21:46:10.589Z,8.99
2023-03-27T21:48:37.147Z,9.24
2023-03-27T21:51:05.376Z,9.45
2023-03-27T21:53:31.873Z,9.42
2023-03-27T21:55:58.800Z,9.44
2023-03-27T21:58:25.786Z,9.51
2023-03-27T22:00:54.758Z,9.66
2023-03-27T22:03:21.300Z,9.72
2023-03-27T22:05:57.292Z,9.69
2023-03-27T22:08:27.924Z,9.67
2023-03-27T22:10:58.346Z,9.60
2023-03-27T22:13:24.871Z,9.44
2023-03-27T22:15:51.748Z,9.57
2023-03-27T22:18:18.365Z,9.68
2023-03-27T22:20:44.877Z,9.64
2023-03-27T22:23:11.367Z,9.65
2023-03-27T22:25:37.864Z,9.53
2023-03-27T22:28:04.420Z,9.57
2023-03-27T22:30:31.516Z,9.58
2023-03-27T22:32:58.068Z,9.68
2023-03-27T22:35:24.678Z,9.51
2023-03-27T22:37:51.232Z,9.60
2023-03-27T22:40:17.902Z,9.50
2023-03-27T22:42:44.454Z,9.69
2023-03-27T22:45:11.376Z,9.30
2023-03-27T22:47:37.944Z,9.60
2023-03-27T22:50:06.432Z,9.64
2023-03-27T22:52:33.220Z,9.45
2023-03-27T22:54:59.856Z,9.42
2023-03-27T22:57:26.445Z,9.30
2023-03-27T22:59:53.776Z,9.69
2023-03-27T23:02:20.769Z,9.74
2023-03-27T23:04:47.287Z,9.46
2023-03-27T23:07:13.774Z,9.51
2023-03-27T23:09:40.351Z,9.34
2023-03-27T23:12:06.906Z,9.14
2023-03-27T23:14:33.376Z,9.27
2023-03-27T23:17:00.692Z,9.57
2023-03-27T23:19:27.172Z,9.48
2023-03-27T23:21:53.668Z,9.58
2023-03-27T23:24:20.188Z,9.56
2023-03-27T23:26:46.708Z,9.44
2023-03-27T23:29:13.170Z,9.55
2023-03-27T23:31:39.743Z,9.48
2023-03-27T23:34:06.247Z,9.52
2023-03-27T23:36:32.778Z,9.47
2023-03-27T23:38:59.281Z,9.61
2023-03-27T23:41:25.784Z,9.27
2023-03-27T23:43:53.862Z,9.24
2023-03-27T23:46:20.413Z,9.27
2023-03-27T23:48:46.969Z,9.32
2023-03-27T23:51:15.019Z,9.40
2023-03-27T23:53:41.930Z,9.44
2023-03-27T23:56:08.972Z,9.59
2023-03-27T23:58:37.088Z,9.61
